createdAt,value
2019-01-23T00:01:08.950Z,95192.20
2019-01-23T00:03:40.795Z,95189.64
2019-01-23T00:06:12.610Z,95184.63
2019-01-23T00:08:44.623Z,95177.59
2019-01-23T00:11:16.515Z,95175.02
2019-01-23T00:13:48.417Z,95166.63
2019-01-23T00:16:20.417Z,95160.09
2019-01-23T00:18:52.335Z,95163.02
2019-01-23T00:21:24.151Z,95157.98
2019-01-23T00:23:56.149Z,95159.84
2019-01-23T00:26:27.961Z,95151.66
2019-01-23T00:28:59.705Z,95151.43
2019-01-23T00:31:31.604Z,95143.47
2019-01-23T00:34:03.588Z,95137.86
2019-01-23T00:36:35.327Z,95140.08
2019-01-23T00:39:09.215Z,95130.15
2019-01-23T00:41:40.969Z,95132.26
2019-01-23T00:44:12.798Z,95127.11
2019-01-23T00:46:44.623Z,95128.39
2019-01-23T00:49:16.708Z,95130.83
2019-01-23T00:51:48.863Z,95124.98
2019-01-23T00:54:21.015Z,95117.28
2019-01-23T00:56:52.881Z,95116.11
2019-01-23T00:59:24.663Z,95110.97
2019-01-23T01:01:56.635Z,95107.58
2019-01-23T01:04:29.446Z,95103.70
2019-01-23T01:07:01.334Z,95103.35
2019-01-23T01:09:33.411Z,95103.00
2019-01-23T01:12:05.401Z,95094.72
2019-01-23T01:14:37.311Z,95093.53
2019-01-23T01:17:09.526Z,95094.23
2019-01-23T01:19:41.311Z,95095.98
2019-01-23T01:22:13.205Z,95092.48
2019-01-23T01:24:45.109Z,95091.79
2019-01-23T01:27:16.944Z,95087.80
2019-01-23T01:29:48.775Z,95096.45
2019-01-23T01:32:20.660Z,95092.50
2019-01-23T01:34:52.739Z,95088.03
2019-01-23T01:37:24.477Z,95089.31
2019-01-23T01:39:56.382Z,95086.88
2019-01-23T01:42:28.202Z,95087.10
2019-01-23T01:44:59.958Z,95085.23
2019-01-23T01:47:31.846Z,95076.45
2019-01-23T01:50:04.561Z,95081.84
2019-01-23T01:52:36.374Z,95077.64
2019-01-23T01:55:09.846Z,95078.92
2019-01-23T01:57:41.754Z,95072.95
2019-01-23T02:00:19.901Z,95059.27
2019-01-23T02:02:51.869Z,95057.66
2019-01-23T02:05:23.780Z,95057.77
2019-01-23T02:07:55.678Z,95058.01
2019-01-23T02:10:35.121Z,95044.44
2019-01-23T02:13:07.277Z,95048.65
2019-01-23T02:15:39.108Z,95042.22
2019-01-23T02:18:11.019Z,95039.73
2019-01-23T02:20:43.192Z,95038.94
2019-01-23T02:23:15.035Z,95041.64
2019-01-23T02:25:46.949Z,95038.23
2019-01-23T02:28:19.030Z,95024.80
2019-01-23T02:30:50.789Z,95022.81
2019-01-23T02:33:22.698Z,95016.02
2019-01-23T02:35:54.593Z,95017.08
2019-01-23T02:38:26.350Z,95025.73
2019-01-23T02:40:58.184Z,95017.81
2019-01-23T02:43:30.007Z,95017.23
2019-01-23T02:46:01.843Z,95009.97
2019-01-23T02:48:33.601Z,95003.64
2019-01-23T02:51:05.508Z,94994.40
2019-01-23T02:53:37.656Z,94986.11
2019-01-23T02:56:10.137Z,94985.64
2019-01-23T02:58:41.927Z,94975.48
2019-01-23T03:01:13.773Z,94975.48
2019-01-23T03:03:45.612Z,94968.03
2019-01-23T03:06:17.841Z,94967.08
2019-01-23T03:08:49.679Z,94964.04
2019-01-23T03:11:21.763Z,94964.98
2019-01-23T03:13:53.588Z,94963.35
2019-01-23T03:16:25.497Z,94958.89
2019-01-23T03:18:57.400Z,94952.95
2019-01-23T03:21:29.246Z,94951.43
2019-01-23T03:24:01.076Z,94944.28
2019-01-23T03:26:32.910Z,94952.69
2019-01-23T03:29:04.831Z,94941.48
2019-01-23T03:31:36.843Z,94938.88
2019-01-23T03:34:08.934Z,94937.02
2019-01-23T03:36:40.842Z,94934.31
2019-01-23T03:39:12.921Z,94936.34
2019-01-23T03:41:45.123Z,94933.86
2019-01-23T03:44:17.044Z,94932.59
2019-01-23T03:46:49.256Z,94935.41
2019-01-23T03:49:21.032Z,94934.02
2019-01-23T03:51:52.962Z,94932.50
2019-01-23T03:54:24.891Z,94931.09
2019-01-23T03:56:56.819Z,94931.89
2019-01-23T03:59:32.339Z,94929.45
2019-01-23T04:02:02.364Z,94928.30
2019-01-23T04:04:34.287Z,94934.61
2019-01-23T04:07:06.284Z,94934.83
2019-01-23T04:09:38.198Z,94934.02
2019-01-23T04:12:10.168Z,94932.14
2019-01-23T04:14:42.105Z,94930.85
2019-01-23T04:17:14.039Z,94929.83
2019-01-23T04:19:46.780Z,94925.64
2019-01-23T04:22:18.886Z,94919.43
2019-01-23T04:24:51.068Z,94919.29
2019-01-23T04:27:23.006Z,94916.27
2019-01-23T04:29:54.918Z,94916.95
2019-01-23T04:32:27.086Z,94911.59
2019-01-23T04:34:59.058Z,94907.25
2019-01-23T04:37:31.099Z,94901.98
2019-01-23T04:40:03.021Z,94898.88
2019-01-23T04:42:35.060Z,94895.70
2019-01-23T04:45:09.391Z,94887.74
2019-01-23T04:47:42.786Z,94889.17
2019-01-23T04:50:16.480Z,94878.84
2019-01-23T04:53:13.217Z,94884.15
2019-01-23T04:55:45.205Z,94876.17
2019-01-23T04:58:17.548Z,94881.59
2019-01-23T05:00:49.602Z,94866.95
2019-01-23T05:03:21.539Z,94873.66
2019-01-23T05:05:53.466Z,94868.94
2019-01-23T05:08:25.532Z,94865.94
2019-01-23T05:10:57.547Z,94867.91
2019-01-23T05:13:29.623Z,94861.73
2019-01-23T05:16:01.649Z,94862.76
2019-01-23T05:18:33.874Z,94858.09
2019-01-23T05:21:05.803Z,94856.34
2019-01-23T05:23:37.984Z,94848.86
2019-01-23T05:26:10.179Z,94855.66
2019-01-23T05:28:42.197Z,94851.91
2019-01-23T05:31:14.663Z,94852.04
2019-01-23T05:33:46.704Z,94846.42
2019-01-23T05:36:18.850Z,94841.54
2019-01-23T05:38:50.790Z,94844.43
2019-01-23T05:41:22.802Z,94837.88
2019-01-23T05:43:54.841Z,94838.19
2019-01-23T05:46:27.394Z,94836.34
2019-01-23T05:48:59.559Z,94838.23
2019-01-23T05:51:31.706Z,94838.25
2019-01-23T05:54:03.635Z,94838.99
2019-01-23T05:56:35.700Z,94836.10
2019-01-23T05:59:07.848Z,94841.89
2019-01-23T06:01:39.865Z,94842.22
2019-01-23T06:04:11.882Z,94835.33
2019-01-23T06:06:44.917Z,94840.13
2019-01-23T06:09:16.996Z,94838.74
2019-01-23T06:11:48.935Z,94837.45
2019-01-23T06:14:20.893Z,94836.62
2019-01-23T06:16:53.038Z,94836.50
2019-01-23T06:19:25.117Z,94839.77
2019-01-23T06:21:57.033Z,94834.69
2019-01-23T06:24:28.993Z,94832.11
2019-01-23T06:27:01.036Z,94826.59
2019-01-23T06:29:32.888Z,94825.07
2019-01-23T06:32:04.984Z,94828.58
2019-01-23T06:34:36.962Z,94823.25
2019-01-23T06:37:10.590Z,94828.17
2019-01-23T06:39:42.873Z,94826.64
2019-01-23T06:42:15.021Z,94820.55
2019-01-23T06:44:47.625Z,94825.83
2019-01-23T06:47:19.542Z,94828.39
2019-01-23T06:49:51.550Z,94829.92
2019-01-23T06:52:23.396Z,94825.58
2019-01-23T06:54:55.704Z,94818.75
2019-01-23T06:57:27.622Z,94816.69
2019-01-23T06:59:59.727Z,94813.28
2019-01-23T07:02:31.719Z,94812.34
2019-01-23T07:05:04.062Z,94810.13
2019-01-23T07:07:36.107Z,94819.71
2019-01-23T07:10:12.593Z,94809.27
2019-01-23T07:12:44.696Z,94813.13
2019-01-23T07:15:16.667Z,94811.33
2019-01-23T07:17:48.662Z,94808.62
2019-01-23T07:20:23.682Z,94808.05
2019-01-23T07:22:55.704Z,94810.13
2019-01-23T07:25:28.833Z,94814.95
2019-01-23T07:28:00.848Z,94807.82
2019-01-23T07:30:43.552Z,94811.42
2019-01-23T07:33:15.467Z,94810.73
2019-01-23T07:35:47.712Z,94806.55
2019-01-23T07:38:19.670Z,94810.05
2019-01-23T07:40:51.610Z,94806.67
2019-01-23T07:43:24.586Z,94801.41
2019-01-23T07:45:56.586Z,94800.48
2019-01-23T07:48:28.608Z,94795.79
2019-01-23T07:51:00.536Z,94797.28
2019-01-23T07:53:32.799Z,94789.70
2019-01-23T07:56:04.739Z,94790.06
2019-01-23T07:58:36.901Z,94790.98
2019-01-23T08:01:09.986Z,94792.70
2019-01-23T08:03:42.093Z,94787.89
2019-01-23T08:06:14.068Z,94783.06
2019-01-23T08:08:45.920Z,94787.98
2019-01-23T08:11:17.933Z,94785.43
2019-01-23T08:13:50.006Z,94785.31
2019-01-23T08:16:21.944Z,94789.48
2019-01-23T08:18:54.119Z,94785.41
2019-01-23T08:21:25.963Z,94785.19
2019-01-23T08:23:57.811Z,94789.98
2019-01-23T08:26:29.706Z,94789.86
2019-01-23T08:29:01.439Z,94787.78
2019-01-23T08:31:33.330Z,94787.53
2019-01-23T08:34:05.212Z,94786.25
2019-01-23T08:36:36.957Z,94786.83
2019-01-23T08:39:09.914Z,94785.84
2019-01-23T08:41:41.675Z,94781.55
2019-01-23T08:44:13.478Z,94783.26
2019-01-23T08:46:45.424Z,94782.00
2019-01-23T08:49:17.244Z,94779.05
2019-01-23T08:51:48.986Z,94772.13
2019-01-23T08:54:20.724Z,94768.50
2019-01-23T08:56:52.544Z,94774.84
2019-01-23T08:59:24.286Z,94769.58
2019-01-23T09:01:56.044Z,94771.69
2019-01-23T09:04:27.933Z,94771.83
2019-01-23T09:06:59.678Z,94771.31
2019-01-23T09:09:31.568Z,94773.26
2019-01-23T09:12:03.466Z,94768.12
2019-01-23T09:14:35.347Z,94770.70
2019-01-23T09:17:07.374Z,94763.98
2019-01-23T09:19:39.116Z,94768.36
2019-01-23T09:22:10.877Z,94768.62
2019-01-23T09:24:42.719Z,94769.94
2019-01-23T09:27:14.627Z,94774.05
2019-01-23T09:29:46.399Z,94773.84
2019-01-23T09:32:58.114Z,94769.58
2019-01-23T09:36:23.786Z,94765.05
2019-01-23T09:40:12.304Z,94767.13
2019-01-23T09:43:11.420Z,94769.27
2019-01-23T09:46:45.165Z,94770.55
2019-01-23T09:50:00.311Z,94770.64
2019-01-23T09:53:23.515Z,94770.55
2019-01-23T09:55:55.536Z,94767.22
2019-01-23T09:58:27.358Z,94765.64
2019-01-23T10:00:59.794Z,94766.69
2019-01-23T10:03:31.831Z,94767.28
2019-01-23T10:06:03.905Z,94766.69
2019-01-23T10:08:35.788Z,94764.59
2019-01-23T10:11:07.759Z,94764.12
2019-01-23T10:13:39.602Z,94759.80
2019-01-23T10:16:18.275Z,94763.53
2019-01-23T10:18:55.988Z,94751.41
2019-01-23T10:21:23.927Z,94764.77
2019-01-23T10:23:55.711Z,94763.71
2019-01-23T10:26:27.710Z,94765.88
2019-01-23T10:28:59.555Z,94758.63
2019-01-23T10:31:31.395Z,94761.08
2019-01-23T10:34:03.239Z,94758.70
2019-01-23T10:36:35.066Z,94763.77
2019-01-23T10:39:09.684Z,94756.55
2019-01-23T10:41:41.687Z,94758.45
2019-01-23T10:44:13.604Z,94752.70
2019-01-23T10:46:45.507Z,94752.70
2019-01-23T10:49:17.425Z,94749.98
2019-01-23T10:51:49.377Z,94747.12
2019-01-23T10:54:21.489Z,94744.52
2019-01-23T10:56:53.574Z,94744.70
2019-01-23T10:59:25.488Z,94737.56
2019-01-23T11:01:57.418Z,94748.55
2019-01-23T11:04:29.363Z,94748.38
2019-01-23T11:07:01.273Z,94730.64
2019-01-23T11:09:33.195Z,94750.01
2019-01-23T11:12:05.283Z,94748.08
2019-01-23T11:14:37.126Z,94757.86
2019-01-23T11:17:09.760Z,94756.98
2019-01-23T11:19:41.707Z,94746.12
2019-01-23T11:22:13.628Z,94749.27
2019-01-23T11:24:45.542Z,94747.25
2019-01-23T11:27:17.375Z,94747.05
2019-01-23T11:29:49.307Z,94743.86
2019-01-23T11:32:21.218Z,94744.52
2019-01-23T11:34:53.132Z,94739.69
2019-01-23T11:37:25.045Z,94740.73
2019-01-23T11:39:57.043Z,94737.31
2019-01-23T11:42:29.003Z,94740.67
2019-01-23T11:45:00.849Z,94736.46
2019-01-23T11:47:33.260Z,94729.05
2019-01-23T11:50:06.807Z,94728.89
2019-01-23T11:52:38.783Z,94730.50
2019-01-23T11:55:11.200Z,94730.19
2019-01-23T11:57:43.116Z,94733.92
2019-01-23T12:00:19.266Z,94734.37
2019-01-23T12:02:51.425Z,94730.20
2019-01-23T12:05:24.195Z,94736.30
2019-01-23T12:07:56.450Z,94729.44
2019-01-23T12:10:28.381Z,94731.86
2019-01-23T12:13:00.298Z,94733.66
2019-01-23T12:15:32.144Z,94738.05
2019-01-23T12:18:04.154Z,94733.34
2019-01-23T12:20:36.077Z,94741.29
2019-01-23T12:23:08.064Z,94740.40
2019-01-23T12:25:40.055Z,94740.78
2019-01-23T12:28:11.965Z,94735.76
2019-01-23T12:30:43.890Z,94740.79
2019-01-23T12:33:23.078Z,94738.92
2019-01-23T12:35:54.983Z,94734.47
2019-01-23T12:38:26.899Z,94728.81
2019-01-23T12:40:58.758Z,94731.78
2019-01-23T12:43:30.661Z,94730.27
2019-01-23T12:46:02.587Z,94723.48
2019-01-23T12:48:34.567Z,94727.45
2019-01-23T12:51:06.759Z,94730.45
2019-01-23T12:53:38.678Z,94728.73
2019-01-23T12:56:10.669Z,94723.25
2019-01-23T12:58:42.578Z,94715.53
2019-01-23T13:01:15.672Z,94716.20
2019-01-23T13:03:47.715Z,94711.63
2019-01-23T13:06:19.746Z,94713.03
2019-01-23T13:08:51.726Z,94709.92
2019-01-23T13:11:23.643Z,94712.53
2019-01-23T13:13:55.551Z,94713.20
2019-01-23T13:16:27.543Z,94711.31
2019-01-23T13:18:59.446Z,94718.18
2019-01-23T13:21:32.334Z,94716.89
2019-01-23T13:24:04.315Z,94718.02
2019-01-23T13:26:36.229Z,94716.81
2019-01-23T13:29:08.134Z,94708.34
2019-01-23T13:31:40.052Z,94713.11
2019-01-23T13:34:11.962Z,94708.03
2019-01-23T13:36:43.815Z,94710.73
2019-01-23T13:39:19.189Z,94720.36
2019-01-23T13:41:51.105Z,94717.16
2019-01-23T13:44:23.072Z,94719.38
2019-01-23T13:46:55.000Z,94717.55
2019-01-23T13:49:26.838Z,94724.64
2019-01-23T13:51:58.684Z,94724.79
2019-01-23T13:54:30.608Z,94726.35
2019-01-23T13:57:02.779Z,94727.72
2019-01-23T13:59:34.758Z,94724.79
2019-01-23T14:02:06.685Z,94730.72
2019-01-23T14:04:38.611Z,94732.95
2019-01-23T14:07:10.456Z,94737.50
2019-01-23T14:09:42.219Z,94735.59
2019-01-23T14:12:14.151Z,94742.46
2019-01-23T14:14:46.232Z,94743.67
2019-01-23T14:17:18.002Z,94744.77
2019-01-23T14:19:49.920Z,94745.97
2019-01-23T14:22:21.765Z,94748.31
2019-01-23T14:24:53.605Z,94744.48
2019-01-23T14:27:25.539Z,94747.06
2019-01-23T14:29:57.529Z,94746.16
2019-01-23T14:32:29.557Z,94742.37
2019-01-23T14:35:01.575Z,94747.28
2019-01-23T14:37:33.500Z,94747.95
2019-01-23T14:40:06.076Z,94751.42
2019-01-23T14:42:38.061Z,94749.08
2019-01-23T14:45:10.685Z,94748.42
2019-01-23T14:47:42.911Z,94748.03
2019-01-23T14:50:15.209Z,94751.89
2019-01-23T14:52:47.539Z,94747.80
2019-01-23T14:55:19.549Z,94746.66
2019-01-23T14:57:51.567Z,94749.94
2019-01-23T15:00:26.286Z,94752.78
2019-01-23T15:02:58.209Z,94751.19
2019-01-23T15:05:49.044Z,94758.17
2019-01-23T15:08:20.895Z,94754.12
2019-01-23T15:10:52.732Z,94758.64
2019-01-23T15:13:24.658Z,94763.20
2019-01-23T15:15:56.507Z,94760.82
2019-01-23T15:18:28.421Z,94764.83
2019-01-23T15:21:00.401Z,94766.94
2019-01-23T15:23:32.326Z,94775.74
2019-01-23T15:26:04.158Z,94772.55
2019-01-23T15:28:36.087Z,94775.62
2019-01-23T15:31:08.262Z,94776.17
2019-01-23T15:33:40.101Z,94772.98
2019-01-23T15:36:12.043Z,94772.09
2019-01-23T15:38:44.030Z,94776.88
2019-01-23T15:41:15.932Z,94777.31
2019-01-23T15:43:47.772Z,94785.30
2019-01-23T15:46:19.676Z,94780.35
2019-01-23T15:48:51.517Z,94785.92
2019-01-23T15:51:23.269Z,94789.54
2019-01-23T15:53:55.112Z,94790.99
2019-01-23T15:56:27.024Z,94796.41
2019-01-23T15:58:58.870Z,94794.73
2019-01-23T16:01:30.852Z,94803.80
2019-01-23T16:04:02.783Z,94803.63
2019-01-23T16:06:35.656Z,94810.94
2019-01-23T16:09:08.518Z,94805.50
2019-01-23T16:11:40.351Z,94808.98
2019-01-23T16:14:12.202Z,94817.30
2019-01-23T16:16:44.188Z,94813.59
2019-01-23T16:19:15.959Z,94821.86
2019-01-23T16:21:47.871Z,94817.52
2019-01-23T16:24:20.035Z,94829.70
2019-01-23T16:26:51.867Z,94829.14
2019-01-23T16:29:23.785Z,94831.47
2019-01-23T16:31:56.666Z,94832.78
2019-01-23T16:34:28.507Z,94832.86
2019-01-23T16:37:00.519Z,94834.33
2019-01-23T16:39:32.676Z,94834.86
2019-01-23T16:42:04.643Z,94836.71
2019-01-23T16:44:36.635Z,94834.84
2019-01-23T16:47:08.626Z,94844.92
2019-01-23T16:49:40.475Z,94846.70
2019-01-23T16:52:12.393Z,94844.00
2019-01-23T16:54:44.311Z,94851.04
2019-01-23T16:57:16.223Z,94852.67
2019-01-23T16:59:48.141Z,94859.09
2019-01-23T17:02:19.977Z,94862.25
2019-01-23T17:04:52.974Z,94863.19
2019-01-23T17:07:24.912Z,94866.81
2019-01-23T17:09:56.802Z,94870.99
2019-01-23T17:12:29.637Z,94868.80
2019-01-23T17:15:01.818Z,94874.38
2019-01-23T17:17:34.699Z,94877.68
2019-01-23T17:20:08.971Z,94875.70
2019-01-23T17:22:40.811Z,94876.05
2019-01-23T17:25:12.998Z,94883.17
2019-01-23T17:27:44.911Z,94875.82
2019-01-23T17:30:17.809Z,94892.64
2019-01-23T17:32:49.801Z,94891.98
2019-01-23T17:35:22.439Z,94891.98
2019-01-23T17:37:54.414Z,94898.62
2019-01-23T17:40:26.370Z,94901.52
2019-01-23T17:42:58.516Z,94900.82
2019-01-23T17:45:33.712Z,94912.54
2019-01-23T17:48:08.505Z,94909.26
2019-01-23T17:50:41.475Z,94905.30
2019-01-23T17:53:13.520Z,94909.14
2019-01-23T17:55:45.536Z,94908.78
2019-01-23T17:58:17.797Z,94917.80
2019-01-23T18:00:57.328Z,94912.65
2019-01-23T18:03:29.235Z,94913.59
2019-01-23T18:06:01.235Z,94910.89
2019-01-23T18:08:33.066Z,94911.36
2019-01-23T18:11:05.336Z,94912.78
2019-01-23T18:13:37.195Z,94913.48
2019-01-23T18:16:12.491Z,94916.27
2019-01-23T18:18:44.573Z,94915.34
2019-01-23T18:21:16.493Z,94911.70
2019-01-23T18:23:48.599Z,94916.27
2019-01-23T18:26:20.520Z,94920.25
2019-01-23T18:28:52.498Z,94922.80
2019-01-23T18:31:53.216Z,94931.33
2019-01-23T18:35:16.795Z,94928.91
2019-01-23T18:38:19.276Z,94919.56
2019-01-23T18:41:38.446Z,94931.11
2019-01-23T18:44:53.247Z,94929.23
2019-01-23T18:48:11.371Z,94934.50
2019-01-23T18:51:48.558Z,94937.28
2019-01-23T18:54:20.538Z,94948.30
2019-01-23T18:56:52.464Z,94955.05
2019-01-23T18:59:24.481Z,94950.97
2019-01-23T19:01:56.650Z,94958.78
2019-01-23T19:04:28.507Z,94961.96
2019-01-23T19:07:00.433Z,94959.61
2019-01-23T19:09:32.340Z,94971.17
2019-01-23T19:12:04.431Z,94961.84
2019-01-23T19:14:36.266Z,94964.86
2019-01-23T19:17:08.204Z,94967.89
2019-01-23T19:19:40.104Z,94969.77
2019-01-23T19:22:12.292Z,94973.28
2019-01-23T19:24:45.032Z,94979.95
2019-01-23T19:27:16.950Z,94977.13
2019-01-23T19:29:48.788Z,94981.23
2019-01-23T19:32:21.128Z,94985.66
2019-01-23T19:34:53.066Z,94985.66
2019-01-23T19:37:25.730Z,94986.34
2019-01-23T19:39:57.581Z,94983.66
2019-01-23T19:42:29.510Z,94987.98
2019-01-23T19:45:01.365Z,94989.73
2019-01-23T19:47:33.290Z,94990.09
2019-01-23T19:50:06.353Z,94989.27
2019-01-23T19:52:38.470Z,94992.76
2019-01-23T19:55:12.765Z,94999.29
2019-01-23T19:57:44.789Z,94999.89
2019-01-23T20:00:22.720Z,94998.97
2019-01-23T20:02:54.704Z,95002.46
2019-01-23T20:05:34.540Z,94998.14
2019-01-23T20:08:06.705Z,94999.43
2019-01-23T20:10:38.630Z,95001.86
2019-01-23T20:13:10.550Z,95007.13
2019-01-23T20:15:42.470Z,95003.39
2019-01-23T20:18:14.469Z,95006.42
2019-01-23T20:20:46.387Z,95010.38
2019-01-23T20:23:18.260Z,95015.77
2019-01-23T20:25:50.184Z,95024.40
2019-01-23T20:28:22.112Z,95026.61
2019-01-23T20:30:54.031Z,95028.82
2019-01-23T20:33:28.182Z,95026.14
2019-01-23T20:35:59.764Z,95031.13
2019-01-23T20:38:31.544Z,95032.20
2019-01-23T20:41:03.395Z,95039.44
2019-01-23T20:43:35.244Z,95035.84
2019-01-23T20:46:07.178Z,95047.14
2019-01-23T20:48:39.042Z,95044.11
2019-01-23T20:51:11.170Z,95046.22
2019-01-23T20:53:43.082Z,95051.82
2019-01-23T20:56:15.244Z,95048.79
2019-01-23T20:58:47.085Z,95050.53
2019-01-23T21:01:18.996Z,95051.16
2019-01-23T21:03:51.004Z,95054.16
2019-01-23T21:06:23.012Z,95054.42
2019-01-23T21:08:54.925Z,95061.19
2019-01-23T21:11:26.832Z,95058.15
2019-01-23T21:13:58.923Z,95051.72
2019-01-23T21:16:30.834Z,95053.46
2019-01-23T21:19:02.680Z,95053.78
2019-01-23T21:21:34.588Z,95050.73
2019-01-23T21:24:06.584Z,95062.90
2019-01-23T21:26:38.498Z,95058.69
2019-01-23T21:29:10.420Z,95060.44
2019-01-23T21:31:42.365Z,95061.11
2019-01-23T21:34:14.489Z,95058.08
2019-01-23T21:36:46.411Z,95058.91
2019-01-23T21:39:18.261Z,95060.09
2019-01-23T21:41:52.947Z,95065.32
2019-01-23T21:44:24.869Z,95063.45
2019-01-23T21:46:57.032Z,95073.38
2019-01-23T21:49:28.961Z,95076.40
2019-01-23T21:52:00.799Z,95081.28
2019-01-23T21:54:32.645Z,95083.74
2019-01-23T21:57:05.599Z,95088.96
2019-01-23T21:59:37.513Z,95085.83
2019-01-23T22:02:09.544Z,95092.39
2019-01-23T22:04:41.522Z,95099.59
2019-01-23T22:07:13.366Z,95099.01
2019-01-23T22:09:45.231Z,95103.34
2019-01-23T22:12:17.086Z,95107.86
2019-01-23T22:14:48.957Z,95109.40
2019-01-23T22:17:20.801Z,95112.55
2019-01-23T22:19:52.665Z,95110.56
2019-01-23T22:22:25.486Z,95120.45
2019-01-23T22:24:57.365Z,95119.34
2019-01-23T22:27:29.281Z,95124.14
2019-01-23T22:30:01.219Z,95124.50
2019-01-23T22:32:33.406Z,95126.84
2019-01-23T22:35:06.620Z,95131.25
2019-01-23T22:37:39.119Z,95131.84
2019-01-23T22:40:12.376Z,95132.77
2019-01-23T22:42:44.287Z,95134.64
2019-01-23T22:45:18.571Z,95133.33
2019-01-23T22:47:50.706Z,95140.63
2019-01-23T22:50:25.532Z,95148.53
2019-01-23T22:52:57.521Z,95145.70
2019-01-23T22:55:29.464Z,95141.98
2019-01-23T22:58:01.371Z,95145.80
2019-01-23T23:01:21.599Z,95154.25
2019-01-23T23:03:53.470Z,95154.45
2019-01-23T23:06:25.428Z,95165.88
2019-01-23T23:08:57.267Z,95175.48
2019-01-23T23:11:29.454Z,95175.48
2019-01-23T23:14:01.383Z,95176.63
2019-01-23T23:16:33.233Z,95186.37
2019-01-23T23:19:05.228Z,95187.09
2019-01-23T23:21:37.076Z,95189.73
2019-01-23T23:24:09.633Z,95186.77
2019-01-23T23:26:41.826Z,95195.28
2019-01-23T23:29:13.739Z,95190.38
2019-01-23T23:31:45.766Z,95195.94
2019-01-23T23:34:17.688Z,95191.69
2019-01-23T23:36:49.618Z,95191.69
2019-01-23T23:39:21.540Z,95192.05
2019-01-23T23:41:53.465Z,95192.02
2019-01-23T23:44:25.355Z,95203.97
2019-01-23T23:46:57.245Z,95200.06
2019-01-23T23:49:29.162Z,95204.36
2019-01-23T23:52:01.093Z,95212.39
2019-01-23T23:54:33.268Z,95212.86
2019-01-23T23:57:05.205Z,95221.75
2019-01-23T23:59:37.121Z,95216.94
